sensor_id;sensor_type;location;lat;lon;timestamp;temperature;humidity
41447;DHT22;27185;52.040;4.490;2022-07-06T00:01:31;16.00;88.40
41447;DHT22;27185;52.040;4.490;2022-07-06T00:03:56;16.00;88.70
41447;DHT22;27185;52.040;4.490;2022-07-06T00:06:23;16.00;89.30
41447;DHT22;27185;52.040;4.490;2022-07-06T00:08:49;16.00;89.00
41447;DHT22;27185;52.040;4.490;2022-07-06T00:11:14;16.00;89.20
41447;DHT22;27185;52.040;4.490;2022-07-06T00:13:40;15.90;89.30
41447;DHT22;27185;52.040;4.490;2022-07-06T00:16:06;15.90;89.40
41447;DHT22;27185;52.040;4.490;2022-07-06T00:18:32;15.80;89.50
41447;DHT22;27185;52.040;4.490;2022-07-06T00:20:57;15.80;89.70
41447;DHT22;27185;52.040;4.490;2022-07-06T00:23:23;15.80;89.80
41447;DHT22;27185;52.040;4.490;2022-07-06T00:25:49;15.80;90.00
41447;DHT22;27185;52.040;4.490;2022-07-06T00:28:15;15.70;90.20
41447;DHT22;27185;52.040;4.490;2022-07-06T00:30:41;15.70;90.20
41447;DHT22;27185;52.040;4.490;2022-07-06T00:33:06;15.60;90.30
41447;DHT22;27185;52.040;4.490;2022-07-06T00:35:32;15.60;90.40
41447;DHT22;27185;52.040;4.490;2022-07-06T00:37:58;15.60;90.40
41447;DHT22;27185;52.040;4.490;2022-07-06T00:40:24;15.50;90.60
41447;DHT22;27185;52.040;4.490;2022-07-06T00:42:50;15.50;90.70
41447;DHT22;27185;52.040;4.490;2022-07-06T00:45:17;15.50;90.90
41447;DHT22;27185;52.040;4.490;2022-07-06T00:47:44;15.40;91.00
41447;DHT22;27185;52.040;4.490;2022-07-06T00:50:11;15.40;91.10
41447;DHT22;27185;52.040;4.490;2022-07-06T00:52:41;15.40;91.30
41447;DHT22;27185;52.040;4.490;2022-07-06T00:55:10;15.30;91.40
41447;DHT22;27185;52.040;4.490;2022-07-06T00:57:37;15.30;91.60
41447;DHT22;27185;52.040;4.490;2022-07-06T01:00:04;15.30;91.70
41447;DHT22;27185;52.040;4.490;2022-07-06T01:02:34;15.20;91.80
41447;DHT22;27185;52.040;4.490;2022-07-06T01:05:02;15.20;92.00
41447;DHT22;27185;52.040;4.490;2022-07-06T01:07:28;15.20;91.90
41447;DHT22;27185;52.040;4.490;2022-07-06T01:09:55;15.20;91.90
41447;DHT22;27185;52.040;4.490;2022-07-06T01:12:21;15.20;92.00
41447;DHT22;27185;52.040;4.490;2022-07-06T01:14:47;15.10;92.10
41447;DHT22;27185;52.040;4.490;2022-07-06T01:17:14;15.10;92.20
41447;DHT22;27185;52.040;4.490;2022-07-06T01:19:40;15.10;92.20
41447;DHT22;27185;52.040;4.490;2022-07-06T01:22:06;15.10;92.30
41447;DHT22;27185;52.040;4.490;2022-07-06T01:24:34;15.10;92.40
41447;DHT22;27185;52.040;4.490;2022-07-06T01:27:00;15.00;92.50
41447;DHT22;27185;52.040;4.490;2022-07-06T01:29:25;15.00;92.50
41447;DHT22;27185;52.040;4.490;2022-07-06T01:31:51;15.00;92.50
41447;DHT22;27185;52.040;4.490;2022-07-06T01:34:18;14.90;92.60
41447;DHT22;27185;52.040;4.490;2022-07-06T01:36:44;14.90;92.70
41447;DHT22;27185;52.040;4.490;2022-07-06T01:39:10;14.90;92.80
41447;DHT22;27185;52.040;4.490;2022-07-06T01:41:36;14.90;92.90
41447;DHT22;27185;52.040;4.490;2022-07-06T01:44:03;14.80;92.90
41447;DHT22;27185;52.040;4.490;2022-07-06T01:46:29;14.80;93.10
41447;DHT22;27185;52.040;4.490;2022-07-06T01:48:55;14.80;93.10
41447;DHT22;27185;52.040;4.490;2022-07-06T01:51:21;14.80;93.20
41447;DHT22;27185;52.040;4.490;2022-07-06T01:53:48;14.70;93.30
41447;DHT22;27185;52.040;4.490;2022-07-06T01:56:14;14.80;93.40
41447;DHT22;27185;52.040;4.490;2022-07-06T01:58:40;14.70;93.40
41447;DHT22;27185;52.040;4.490;2022-07-06T02:01:09;14.70;93.50
41447;DHT22;27185;52.040;4.490;2022-07-06T02:03:35;14.70;93.70
41447;DHT22;27185;52.040;4.490;2022-07-06T02:06:01;14.70;93.60
41447;DHT22;27185;52.040;4.490;2022-07-06T02:08:27;14.60;93.60
41447;DHT22;27185;52.040;4.490;2022-07-06T02:10:53;14.60;93.60
41447;DHT22;27185;52.040;4.490;2022-07-06T02:13:18;14.60;93.70
41447;DHT22;27185;52.040;4.490;2022-07-06T02:15:44;14.50;93.70
41447;DHT22;27185;52.040;4.490;2022-07-06T02:18:09;14.60;93.80
41447;DHT22;27185;52.040;4.490;2022-07-06T02:20:35;14.50;93.80
41447;DHT22;27185;52.040;4.490;2022-07-06T02:23:01;14.50;93.90
41447;DHT22;27185;52.040;4.490;2022-07-06T02:25:26;14.50;94.00
41447;DHT22;27185;52.040;4.490;2022-07-06T02:27:52;14.40;94.00
41447;DHT22;27185;52.040;4.490;2022-07-06T02:30:18;14.40;94.10
41447;DHT22;27185;52.040;4.490;2022-07-06T02:32:43;14.40;94.30
41447;DHT22;27185;52.040;4.490;2022-07-06T02:35:09;14.40;94.40
41447;DHT22;27185;52.040;4.490;2022-07-06T02:37:34;14.40;94.50
41447;DHT22;27185;52.040;4.490;2022-07-06T02:40:00;14.40;94.40
41447;DHT22;27185;52.040;4.490;2022-07-06T02:42:26;14.30;94.40
41447;DHT22;27185;52.040;4.490;2022-07-06T02:44:55;14.30;94.50
41447;DHT22;27185;52.040;4.490;2022-07-06T02:47:21;14.30;94.70
41447;DHT22;27185;52.040;4.490;2022-07-06T02:49:47;14.30;94.70
41447;DHT22;27185;52.040;4.490;2022-07-06T02:52:12;14.30;94.60
41447;DHT22;27185;52.040;4.490;2022-07-06T02:54:38;14.30;94.70
41447;DHT22;27185;52.040;4.490;2022-07-06T02:57:04;14.30;94.80
41447;DHT22;27185;52.040;4.490;2022-07-06T02:59:29;14.30;94.80
41447;DHT22;27185;52.040;4.490;2022-07-06T03:01:55;14.20;94.90
41447;DHT22;27185;52.040;4.490;2022-07-06T03:04:20;14.20;94.90
41447;DHT22;27185;52.040;4.490;2022-07-06T03:06:46;14.30;95.00
41447;DHT22;27185;52.040;4.490;2022-07-06T03:09:12;14.20;95.00
41447;DHT22;27185;52.040;4.490;2022-07-06T03:11:38;14.20;95.00
41447;DHT22;27185;52.040;4.490;2022-07-06T03:14:04;14.20;95.00
41447;DHT22;27185;52.040;4.490;2022-07-06T03:16:30;14.20;95.10
41447;DHT22;27185;52.040;4.490;2022-07-06T03:18:55;14.30;95.20
41447;DHT22;27185;52.040;4.490;2022-07-06T03:21:22;14.20;95.30
41447;DHT22;27185;52.040;4.490;2022-07-06T03:23:47;14.20;95.30
41447;DHT22;27185;52.040;4.490;2022-07-06T03:26:13;14.30;95.40
41447;DHT22;27185;52.040;4.490;2022-07-06T03:28:39;14.30;95.40
41447;DHT22;27185;52.040;4.490;2022-07-06T03:31:04;14.30;95.40
41447;DHT22;27185;52.040;4.490;2022-07-06T03:33:30;14.30;95.40
41447;DHT22;27185;52.040;4.490;2022-07-06T03:35:55;14.30;95.40
41447;DHT22;27185;52.040;4.490;2022-07-06T03:38:21;14.30;95.40
41447;DHT22;27185;52.040;4.490;2022-07-06T03:40:47;14.30;95.40
41447;DHT22;27185;52.040;4.490;2022-07-06T03:43:12;14.30;95.50
41447;DHT22;27185;52.040;4.490;2022-07-06T03:45:38;14.30;95.60
41447;DHT22;27185;52.040;4.490;2022-07-06T03:48:04;14.30;95.60
41447;DHT22;27185;52.040;4.490;2022-07-06T03:50:30;14.30;95.60
41447;DHT22;27185;52.040;4.490;2022-07-06T03:52:55;14.30;95.70
41447;DHT22;27185;52.040;4.490;2022-07-06T03:55:21;14.30;95.70
41447;DHT22;27185;52.040;4.490;2022-07-06T03:57:47;14.40;95.80
41447;DHT22;27185;52.040;4.490;2022-07-06T04:00:13;14.40;95.90
41447;DHT22;27185;52.040;4.490;2022-07-06T04:02:38;14.50;96.00
41447;DHT22;27185;52.040;4.490;2022-07-06T04:05:04;14.50;96.10
41447;DHT22;27185;52.040;4.490;2022-07-06T04:07:30;14.60;96.20
41447;DHT22;27185;52.040;4.490;2022-07-06T04:09:56;14.60;96.20
41447;DHT22;27185;52.040;4.490;2022-07-06T04:12:21;14.70;96.20
41447;DHT22;27185;52.040;4.490;2022-07-06T04:14:47;14.80;96.10
41447;DHT22;27185;52.040;4.490;2022-07-06T04:17:13;14.90;96.10
41447;DHT22;27185;52.040;4.490;2022-07-06T04:19:57;15.00;96.10
41447;DHT22;27185;52.040;4.490;2022-07-06T04:22:22;15.10;95.90
41447;DHT22;27185;52.040;4.490;2022-07-06T04:24:48;15.20;95.90
41447;DHT22;27185;52.040;4.490;2022-07-06T04:27:13;15.20;95.80
41447;DHT22;27185;52.040;4.490;2022-07-06T04:29:39;15.40;95.80
41447;DHT22;27185;52.040;4.490;2022-07-06T04:32:05;15.40;95.70
41447;DHT22;27185;52.040;4.490;2022-07-06T04:34:31;15.50;95.60
41447;DHT22;27185;52.040;4.490;2022-07-06T04:36:57;15.60;95.60
41447;DHT22;27185;52.040;4.490;2022-07-06T04:39:22;15.60;95.50
41447;DHT22;27185;52.040;4.490;2022-07-06T04:41:48;15.70;95.40
41447;DHT22;27185;52.040;4.490;2022-07-06T04:44:14;15.80;95.40
41447;DHT22;27185;52.040;4.490;2022-07-06T04:46:39;15.90;95.30
41447;DHT22;27185;52.040;4.490;2022-07-06T04:49:05;15.90;95.20
41447;DHT22;27185;52.040;4.490;2022-07-06T04:51:32;16.00;95.10
41447;DHT22;27185;52.040;4.490;2022-07-06T04:53:58;16.10;95.00
41447;DHT22;27185;52.040;4.490;2022-07-06T04:56:23;16.10;94.80
41447;DHT22;27185;52.040;4.490;2022-07-06T04:58:49;16.20;94.60
41447;DHT22;27185;52.040;4.490;2022-07-06T05:01:14;16.20;94.40
41447;DHT22;27185;52.040;4.490;2022-07-06T05:03:40;16.30;94.30
41447;DHT22;27185;52.040;4.490;2022-07-06T05:06:06;16.30;94.10
41447;DHT22;27185;52.040;4.490;2022-07-06T05:08:33;16.30;94.00
41447;DHT22;27185;52.040;4.490;2022-07-06T05:10:58;16.40;93.80
41447;DHT22;27185;52.040;4.490;2022-07-06T05:13:24;16.40;93.70
41447;DHT22;27185;52.040;4.490;2022-07-06T05:15:50;16.50;93.60
41447;DHT22;27185;52.040;4.490;2022-07-06T05:18:15;16.50;93.50
41447;DHT22;27185;52.040;4.490;2022-07-06T05:20:41;16.60;93.40
41447;DHT22;27185;52.040;4.490;2022-07-06T05:23:06;16.60;93.30
41447;DHT22;27185;52.040;4.490;2022-07-06T05:25:32;16.70;93.30
41447;DHT22;27185;52.040;4.490;2022-07-06T05:27:59;16.70;93.10
41447;DHT22;27185;52.040;4.490;2022-07-06T05:30:25;16.80;93.10
41447;DHT22;27185;52.040;4.490;2022-07-06T05:32:51;16.80;92.90
41447;DHT22;27185;52.040;4.490;2022-07-06T05:35:16;16.90;93.10
41447;DHT22;27185;52.040;4.490;2022-07-06T05:37:42;17.00;92.80
41447;DHT22;27185;52.040;4.490;2022-07-06T05:40:08;17.00;92.80
41447;DHT22;27185;52.040;4.490;2022-07-06T05:42:34;17.00;92.60
41447;DHT22;27185;52.040;4.490;2022-07-06T05:45:00;17.20;92.60
41447;DHT22;27185;52.040;4.490;2022-07-06T05:47:26;17.20;92.50
41447;DHT22;27185;52.040;4.490;2022-07-06T05:50:10;17.30;92.40
41447;DHT22;27185;52.040;4.490;2022-07-06T05:52:39;17.30;92.20
41447;DHT22;27185;52.040;4.490;2022-07-06T05:55:05;17.50;92.10
41447;DHT22;27185;52.040;4.490;2022-07-06T05:57:31;17.50;92.20
41447;DHT22;27185;52.040;4.490;2022-07-06T05:59:57;17.60;92.20
41447;DHT22;27185;52.040;4.490;2022-07-06T06:02:22;17.60;92.10
41447;DHT22;27185;52.040;4.490;2022-07-06T06:04:48;17.70;92.00
41447;DHT22;27185;52.040;4.490;2022-07-06T06:07:13;17.80;91.80
41447;DHT22;27185;52.040;4.490;2022-07-06T06:09:39;17.80;91.50
41447;DHT22;27185;52.040;4.490;2022-07-06T06:12:05;17.90;91.50
41447;DHT22;27185;52.040;4.490;2022-07-06T06:14:31;18.00;91.40
41447;DHT22;27185;52.040;4.490;2022-07-06T06:16:57;18.10;91.30
41447;DHT22;27185;52.040;4.490;2022-07-06T06:19:23;18.10;91.20
41447;DHT22;27185;52.040;4.490;2022-07-06T06:21:49;18.20;91.00
41447;DHT22;27185;52.040;4.490;2022-07-06T06:24:17;18.30;90.70
41447;DHT22;27185;52.040;4.490;2022-07-06T06:26:42;18.30;90.40
41447;DHT22;27185;52.040;4.490;2022-07-06T06:29:08;18.40;90.50
41447;DHT22;27185;52.040;4.490;2022-07-06T06:31:34;18.50;90.40
41447;DHT22;27185;52.040;4.490;2022-07-06T06:33:59;18.50;90.20
41447;DHT22;27185;52.040;4.490;2022-07-06T06:36:25;18.60;90.20
41447;DHT22;27185;52.040;4.490;2022-07-06T06:38:51;18.70;90.10
41447;DHT22;27185;52.040;4.490;2022-07-06T06:41:16;18.80;89.30
41447;DHT22;27185;52.040;4.490;2022-07-06T06:43:43;18.80;88.40
41447;DHT22;27185;52.040;4.490;2022-07-06T06:46:11;18.90;88.50
41447;DHT22;27185;52.040;4.490;2022-07-06T06:48:37;19.00;87.90
41447;DHT22;27185;52.040;4.490;2022-07-06T06:51:04;19.00;87.30
41447;DHT22;27185;52.040;4.490;2022-07-06T06:53:29;19.00;87.30
41447;DHT22;27185;52.040;4.490;2022-07-06T06:55:55;19.10;87.60
41447;DHT22;27185;52.040;4.490;2022-07-06T06:58:21;19.20;87.40
41447;DHT22;27185;52.040;4.490;2022-07-06T07:00:47;19.30;87.00
41447;DHT22;27185;52.040;4.490;2022-07-06T07:03:13;19.30;86.70
41447;DHT22;27185;52.040;4.490;2022-07-06T07:05:38;19.40;86.20
41447;DHT22;27185;52.040;4.490;2022-07-06T07:08:04;19.40;85.70
41447;DHT22;27185;52.040;4.490;2022-07-06T07:10:31;19.50;85.00
41447;DHT22;27185;52.040;4.490;2022-07-06T07:12:56;19.50;85.10
41447;DHT22;27185;52.040;4.490;2022-07-06T07:15:22;19.60;84.70
41447;DHT22;27185;52.040;4.490;2022-07-06T07:17:47;19.60;83.60
41447;DHT22;27185;52.040;4.490;2022-07-06T07:20:13;19.70;83.40
41447;DHT22;27185;52.040;4.490;2022-07-06T07:22:39;19.80;82.90
41447;DHT22;27185;52.040;4.490;2022-07-06T07:25:05;19.80;82.30
41447;DHT22;27185;52.040;4.490;2022-07-06T07:27:31;19.90;82.10
41447;DHT22;27185;52.040;4.490;2022-07-06T07:29:57;20.00;82.10
41447;DHT22;27185;52.040;4.490;2022-07-06T07:32:23;20.00;81.80
41447;DHT22;27185;52.040;4.490;2022-07-06T07:34:48;20.10;82.40
41447;DHT22;27185;52.040;4.490;2022-07-06T07:37:14;20.20;81.80
41447;DHT22;27185;52.040;4.490;2022-07-06T07:39:39;20.20;81.40
41447;DHT22;27185;52.040;4.490;2022-07-06T07:42:05;20.30;80.80
41447;DHT22;27185;52.040;4.490;2022-07-06T07:44:31;20.40;79.70
41447;DHT22;27185;52.040;4.490;2022-07-06T07:46:56;20.50;77.90
41447;DHT22;27185;52.040;4.490;2022-07-06T07:49:22;20.50;78.00
41447;DHT22;27185;52.040;4.490;2022-07-06T07:51:48;20.60;79.10
41447;DHT22;27185;52.040;4.490;2022-07-06T07:54:14;20.70;78.20
41447;DHT22;27185;52.040;4.490;2022-07-06T07:56:40;20.70;76.60
41447;DHT22;27185;52.040;4.490;2022-07-06T07:59:08;20.80;76.00
41447;DHT22;27185;52.040;4.490;2022-07-06T08:01:34;20.90;74.80
41447;DHT22;27185;52.040;4.490;2022-07-06T08:04:01;21.00;75.30
41447;DHT22;27185;52.040;4.490;2022-07-06T08:06:26;21.00;75.60
41447;DHT22;27185;52.040;4.490;2022-07-06T08:08:52;21.10;74.80
41447;DHT22;27185;52.040;4.490;2022-07-06T08:11:18;21.30;74.40
41447;DHT22;27185;52.040;4.490;2022-07-06T08:13:44;21.40;73.60
41447;DHT22;27185;52.040;4.490;2022-07-06T08:16:10;21.50;73.60
41447;DHT22;27185;52.040;4.490;2022-07-06T08:18:36;21.60;73.40
41447;DHT22;27185;52.040;4.490;2022-07-06T08:21:03;21.70;72.30
41447;DHT22;27185;52.040;4.490;2022-07-06T08:23:29;21.90;71.90
41447;DHT22;27185;52.040;4.490;2022-07-06T08:25:54;22.10;70.50
41447;DHT22;27185;52.040;4.490;2022-07-06T08:28:20;22.20;70.60
41447;DHT22;27185;52.040;4.490;2022-07-06T08:30:46;22.40;70.80
41447;DHT22;27185;52.040;4.490;2022-07-06T08:33:13;22.50;70.30
41447;DHT22;27185;52.040;4.490;2022-07-06T08:35:39;22.60;69.40
41447;DHT22;27185;52.040;4.490;2022-07-06T08:38:04;22.70;68.50
41447;DHT22;27185;52.040;4.490;2022-07-06T08:40:33;22.80;68.30
41447;DHT22;27185;52.040;4.490;2022-07-06T08:43:00;22.80;67.70
41447;DHT22;27185;52.040;4.490;2022-07-06T08:45:26;22.90;66.60
41447;DHT22;27185;52.040;4.490;2022-07-06T08:47:54;22.90;67.10
41447;DHT22;27185;52.040;4.490;2022-07-06T08:50:20;23.00;65.90
41447;DHT22;27185;52.040;4.490;2022-07-06T08:52:47;23.00;65.70
41447;DHT22;27185;52.040;4.490;2022-07-06T08:55:15;23.00;65.00
41447;DHT22;27185;52.040;4.490;2022-07-06T08:57:41;23.00;65.30
41447;DHT22;27185;52.040;4.490;2022-07-06T09:00:08;23.00;65.20
41447;DHT22;27185;52.040;4.490;2022-07-06T09:02:35;23.00;64.70
41447;DHT22;27185;52.040;4.490;2022-07-06T09:05:03;23.10;64.80
41447;DHT22;27185;52.040;4.490;2022-07-06T09:07:29;23.10;64.70
41447;DHT22;27185;52.040;4.490;2022-07-06T09:09:55;23.20;65.00
41447;DHT22;27185;52.040;4.490;2022-07-06T09:12:22;23.30;64.80
41447;DHT22;27185;52.040;4.490;2022-07-06T09:14:47;23.30;64.40
41447;DHT22;27185;52.040;4.490;2022-07-06T09:17:13;23.30;64.00
41447;DHT22;27185;52.040;4.490;2022-07-06T09:19:39;23.40;63.90
41447;DHT22;27185;52.040;4.490;2022-07-06T09:22:05;23.40;64.00
41447;DHT22;27185;52.040;4.490;2022-07-06T09:24:31;23.50;63.50
41447;DHT22;27185;52.040;4.490;2022-07-06T09:26:58;23.60;63.70
41447;DHT22;27185;52.040;4.490;2022-07-06T09:29:33;23.60;63.50
41447;DHT22;27185;52.040;4.490;2022-07-06T09:32:03;23.70;62.80
41447;DHT22;27185;52.040;4.490;2022-07-06T09:34:44;23.70;62.60
41447;DHT22;27185;52.040;4.490;2022-07-06T09:37:10;23.80;62.80
41447;DHT22;27185;52.040;4.490;2022-07-06T09:39:36;23.70;63.70
41447;DHT22;27185;52.040;4.490;2022-07-06T09:42:03;23.90;63.30
41447;DHT22;27185;52.040;4.490;2022-07-06T09:44:32;23.80;62.80
41447;DHT22;27185;52.040;4.490;2022-07-06T09:46:59;23.90;62.80
41447;DHT22;27185;52.040;4.490;2022-07-06T09:49:26;23.90;62.50
41447;DHT22;27185;52.040;4.490;2022-07-06T09:51:56;23.90;62.20
41447;DHT22;27185;52.040;4.490;2022-07-06T09:54:22;23.80;61.40
41447;DHT22;27185;52.040;4.490;2022-07-06T09:56:48;23.80;61.30
41447;DHT22;27185;52.040;4.490;2022-07-06T09:59:28;23.70;61.00
41447;DHT22;27185;52.040;4.490;2022-07-06T10:02:00;23.80;58.40
41447;DHT22;27185;52.040;4.490;2022-07-06T10:04:27;23.80;60.10
41447;DHT22;27185;52.040;4.490;2022-07-06T10:06:55;23.80;60.50
41447;DHT22;27185;52.040;4.490;2022-07-06T10:09:23;23.80;60.80
41447;DHT22;27185;52.040;4.490;2022-07-06T10:11:51;23.80;60.30
41447;DHT22;27185;52.040;4.490;2022-07-06T10:14:19;23.90;59.20
41447;DHT22;27185;52.040;4.490;2022-07-06T10:16:46;23.90;60.50
41447;DHT22;27185;52.040;4.490;2022-07-06T10:19:13;23.90;60.10
41447;DHT22;27185;52.040;4.490;2022-07-06T10:21:40;23.90;59.90
41447;DHT22;27185;52.040;4.490;2022-07-06T10:24:07;23.90;60.70
41447;DHT22;27185;52.040;4.490;2022-07-06T10:26:34;24.10;60.30
41447;DHT22;27185;52.040;4.490;2022-07-06T10:29:01;24.20;60.80
41447;DHT22;27185;52.040;4.490;2022-07-06T10:31:28;24.30;60.40
41447;DHT22;27185;52.040;4.490;2022-07-06T10:33:56;24.50;59.70
41447;DHT22;27185;52.040;4.490;2022-07-06T10:36:22;24.60;60.10
41447;DHT22;27185;52.040;4.490;2022-07-06T10:38:50;24.90;59.70
41447;DHT22;27185;52.040;4.490;2022-07-06T10:41:16;25.10;59.00
41447;DHT22;27185;52.040;4.490;2022-07-06T10:43:45;25.30;58.80
41447;DHT22;27185;52.040;4.490;2022-07-06T10:46:15;25.50;58.30
41447;DHT22;27185;52.040;4.490;2022-07-06T10:48:49;25.70;57.90
41447;DHT22;27185;52.040;4.490;2022-07-06T10:51:28;25.90;57.40
41447;DHT22;27185;52.040;4.490;2022-07-06T10:54:01;26.00;54.30
41447;DHT22;27185;52.040;4.490;2022-07-06T10:56:40;26.10;54.90
41447;DHT22;27185;52.040;4.490;2022-07-06T10:59:17;26.20;52.70
41447;DHT22;27185;52.040;4.490;2022-07-06T11:02:13;26.20;53.60
41447;DHT22;27185;52.040;4.490;2022-07-06T11:04:40;26.10;52.50
41447;DHT22;27185;52.040;4.490;2022-07-06T11:07:14;26.00;54.80
41447;DHT22;27185;52.040;4.490;2022-07-06T11:09:40;26.00;52.70
41447;DHT22;27185;52.040;4.490;2022-07-06T11:12:19;26.00;54.50
41447;DHT22;27185;52.040;4.490;2022-07-06T11:14:46;26.20;53.40
41447;DHT22;27185;52.040;4.490;2022-07-06T11:17:13;26.30;54.70
41447;DHT22;27185;52.040;4.490;2022-07-06T11:19:55;26.40;54.80
41447;DHT22;27185;52.040;4.490;2022-07-06T11:22:21;26.60;52.40
41447;DHT22;27185;52.040;4.490;2022-07-06T11:24:49;26.60;54.40
41447;DHT22;27185;52.040;4.490;2022-07-06T11:27:17;26.70;53.80
41447;DHT22;27185;52.040;4.490;2022-07-06T11:29:43;26.80;54.20
41447;DHT22;27185;52.040;4.490;2022-07-06T11:32:11;26.90;53.40
41447;DHT22;27185;52.040;4.490;2022-07-06T11:34:40;27.00;52.60
41447;DHT22;27185;52.040;4.490;2022-07-06T11:37:08;27.10;52.10
41447;DHT22;27185;52.040;4.490;2022-07-06T11:39:42;27.20;52.60
41447;DHT22;27185;52.040;4.490;2022-07-06T11:42:14;27.20;52.10
41447;DHT22;27185;52.040;4.490;2022-07-06T11:44:40;27.10;51.90
41447;DHT22;27185;52.040;4.490;2022-07-06T11:47:07;27.10;52.70
41447;DHT22;27185;52.040;4.490;2022-07-06T11:49:35;27.10;52.60
41447;DHT22;27185;52.040;4.490;2022-07-06T11:52:08;27.10;53.10
41447;DHT22;27185;52.040;4.490;2022-07-06T11:54:35;27.10;52.70
41447;DHT22;27185;52.040;4.490;2022-07-06T11:57:01;27.00;53.20
41447;DHT22;27185;52.040;4.490;2022-07-06T11:59:31;27.00;53.50
41447;DHT22;27185;52.040;4.490;2022-07-06T12:02:08;27.00;54.00
41447;DHT22;27185;52.040;4.490;2022-07-06T12:04:38;26.90;53.70
41447;DHT22;27185;52.040;4.490;2022-07-06T12:07:22;26.90;53.50
41447;DHT22;27185;52.040;4.490;2022-07-06T12:09:48;26.80;52.60
41447;DHT22;27185;52.040;4.490;2022-07-06T12:12:14;26.80;54.20
41447;DHT22;27185;52.040;4.490;2022-07-06T12:14:42;26.70;54.50
41447;DHT22;27185;52.040;4.490;2022-07-06T12:17:12;26.70;54.20
41447;DHT22;27185;52.040;4.490;2022-07-06T12:19:39;26.60;53.90
41447;DHT22;27185;52.040;4.490;2022-07-06T12:22:06;26.60;54.60
41447;DHT22;27185;52.040;4.490;2022-07-06T12:24:33;26.60;54.70
41447;DHT22;27185;52.040;4.490;2022-07-06T12:29:41;26.50;54.50
41447;DHT22;27185;52.040;4.490;2022-07-06T12:32:13;26.40;55.40
41447;DHT22;27185;52.040;4.490;2022-07-06T12:34:39;26.50;56.00
41447;DHT22;27185;52.040;4.490;2022-07-06T12:37:09;26.50;55.90
41447;DHT22;27185;52.040;4.490;2022-07-06T12:39:47;26.50;55.40
41447;DHT22;27185;52.040;4.490;2022-07-06T12:42:14;26.50;55.50
41447;DHT22;27185;52.040;4.490;2022-07-06T12:44:45;26.50;56.00
41447;DHT22;27185;52.040;4.490;2022-07-06T12:47:12;26.50;55.90
41447;DHT22;27185;52.040;4.490;2022-07-06T12:49:38;26.60;56.60
41447;DHT22;27185;52.040;4.490;2022-07-06T12:52:10;26.60;56.70
41447;DHT22;27185;52.040;4.490;2022-07-06T12:54:50;26.60;56.80
41447;DHT22;27185;52.040;4.490;2022-07-06T12:57:20;26.70;56.60
41447;DHT22;27185;52.040;4.490;2022-07-06T13:02:30;26.60;56.40
41447;DHT22;27185;52.040;4.490;2022-07-06T13:05:00;26.60;56.90
41447;DHT22;27185;52.040;4.490;2022-07-06T13:07:26;26.60;57.00
41447;DHT22;27185;52.040;4.490;2022-07-06T13:09:54;26.60;57.50
41447;DHT22;27185;52.040;4.490;2022-07-06T13:12:20;26.60;57.30
41447;DHT22;27185;52.040;4.490;2022-07-06T13:14:47;26.70;57.60
41447;DHT22;27185;52.040;4.490;2022-07-06T13:17:13;26.60;56.90
41447;DHT22;27185;52.040;4.490;2022-07-06T13:19:39;26.60;56.50
41447;DHT22;27185;52.040;4.490;2022-07-06T13:22:04;26.50;57.10
41447;DHT22;27185;52.040;4.490;2022-07-06T13:24:30;26.40;57.80
41447;DHT22;27185;52.040;4.490;2022-07-06T13:26:56;26.20;57.80
41447;DHT22;27185;52.040;4.490;2022-07-06T13:29:22;26.00;58.00
41447;DHT22;27185;52.040;4.490;2022-07-06T13:31:48;25.90;58.60
41447;DHT22;27185;52.040;4.490;2022-07-06T13:34:14;25.70;59.40
41447;DHT22;27185;52.040;4.490;2022-07-06T13:36:40;25.70;60.00
41447;DHT22;27185;52.040;4.490;2022-07-06T13:39:06;25.50;60.80
41447;DHT22;27185;52.040;4.490;2022-07-06T13:41:32;25.50;61.30
41447;DHT22;27185;52.040;4.490;2022-07-06T13:43:59;25.40;62.00
41447;DHT22;27185;52.040;4.490;2022-07-06T13:46:29;25.30;62.20
41447;DHT22;27185;52.040;4.490;2022-07-06T13:48:55;25.10;62.10
41447;DHT22;27185;52.040;4.490;2022-07-06T13:51:23;25.00;62.50
41447;DHT22;27185;52.040;4.490;2022-07-06T13:53:50;24.90;63.20
41447;DHT22;27185;52.040;4.490;2022-07-06T13:56:16;24.80;63.80
41447;DHT22;27185;52.040;4.490;2022-07-06T13:58:42;24.80;64.80
41447;DHT22;27185;52.040;4.490;2022-07-06T14:01:08;24.80;65.70
41447;DHT22;27185;52.040;4.490;2022-07-06T14:03:34;24.80;66.10
41447;DHT22;27185;52.040;4.490;2022-07-06T14:06:02;24.80;66.60
41447;DHT22;27185;52.040;4.490;2022-07-06T14:08:28;24.80;67.10
41447;DHT22;27185;52.040;4.490;2022-07-06T14:10:54;24.70;67.10
41447;DHT22;27185;52.040;4.490;2022-07-06T14:13:21;24.70;67.10
41447;DHT22;27185;52.040;4.490;2022-07-06T14:15:48;24.70;67.20
41447;DHT22;27185;52.040;4.490;2022-07-06T14:18:13;24.70;67.60
41447;DHT22;27185;52.040;4.490;2022-07-06T14:20:40;24.70;68.10
41447;DHT22;27185;52.040;4.490;2022-07-06T14:23:06;24.70;68.20
41447;DHT22;27185;52.040;4.490;2022-07-06T14:25:32;24.80;68.40
41447;DHT22;27185;52.040;4.490;2022-07-06T14:27:58;24.90;68.20
41447;DHT22;27185;52.040;4.490;2022-07-06T14:30:24;24.90;68.20
41447;DHT22;27185;52.040;4.490;2022-07-06T14:32:49;24.90;68.20
41447;DHT22;27185;52.040;4.490;2022-07-06T14:35:16;24.90;68.20
41447;DHT22;27185;52.040;4.490;2022-07-06T14:37:41;24.90;68.20
41447;DHT22;27185;52.040;4.490;2022-07-06T14:40:08;24.80;67.80
41447;DHT22;27185;52.040;4.490;2022-07-06T14:42:34;24.80;67.20
41447;DHT22;27185;52.040;4.490;2022-07-06T14:44:59;24.80;66.80
41447;DHT22;27185;52.040;4.490;2022-07-06T14:47:25;24.80;66.70
41447;DHT22;27185;52.040;4.490;2022-07-06T14:49:51;24.80;66.50
41447;DHT22;27185;52.040;4.490;2022-07-06T14:52:18;24.70;66.10
41447;DHT22;27185;52.040;4.490;2022-07-06T14:54:44;24.60;66.40
41447;DHT22;27185;52.040;4.490;2022-07-06T14:57:10;24.60;66.70
41447;DHT22;27185;52.040;4.490;2022-07-06T14:59:35;24.60;67.00
41447;DHT22;27185;52.040;4.490;2022-07-06T15:02:02;24.60;66.70
41447;DHT22;27185;52.040;4.490;2022-07-06T15:04:28;24.60;66.40
41447;DHT22;27185;52.040;4.490;2022-07-06T15:06:54;24.60;65.40
41447;DHT22;27185;52.040;4.490;2022-07-06T15:09:21;24.60;65.50
41447;DHT22;27185;52.040;4.490;2022-07-06T15:11:46;24.50;65.70
41447;DHT22;27185;52.040;4.490;2022-07-06T15:14:12;24.50;65.40
41447;DHT22;27185;52.040;4.490;2022-07-06T15:16:46;24.50;64.50
41447;DHT22;27185;52.040;4.490;2022-07-06T15:19:12;24.40;64.30
41447;DHT22;27185;52.040;4.490;2022-07-06T15:21:37;24.30;64.20
41447;DHT22;27185;52.040;4.490;2022-07-06T15:24:03;24.30;64.60
41447;DHT22;27185;52.040;4.490;2022-07-06T15:26:30;24.30;64.70
41447;DHT22;27185;52.040;4.490;2022-07-06T15:28:55;24.30;64.80
41447;DHT22;27185;52.040;4.490;2022-07-06T15:31:21;24.20;64.70
41447;DHT22;27185;52.040;4.490;2022-07-06T15:33:47;24.20;65.10